sensor_id;sensor_type;location;lat;lon;timestamp;P1;durP1;ratioP1;P2;durP2;ratioP2
31206;SDS011;17834;52.992;8.856;2022-09-09T00:00:24;34.20;;;14.85;;
31206;SDS011;17834;52.992;8.856;2022-09-09T00:02:54;34.03;;;15.88;;
31206;SDS011;17834;52.992;8.856;2022-09-09T00:05:44;31.67;;;12.80;;
31206;SDS011;17834;52.992;8.856;2022-09-09T00:10:37;32.67;;;14.52;;
31206;SDS011;17834;52.992;8.856;2022-09-09T00:15:43;29.42;;;13.80;;
31206;SDS011;17834;52.992;8.856;2022-09-09T00:18:17;33.58;;;15.35;;
31206;SDS011;17834;52.992;8.856;2022-09-09T00:23:27;34.30;;;16.75;;
31206;SDS011;17834;52.992;8.856;2022-09-09T00:28:26;29.67;;;14.73;;
31206;SDS011;17834;52.992;8.856;2022-09-09T00:30:59;31.75;;;15.75;;
31206;SDS011;17834;52.992;8.856;2022-09-09T00:33:26;33.67;;;16.65;;
31206;SDS011;17834;52.992;8.856;2022-09-09T00:35:57;35.28;;;15.70;;
31206;SDS011;17834;52.992;8.856;2022-09-09T00:40:51;28.30;;;13.48;;
31206;SDS011;17834;52.992;8.856;2022-09-09T00:43:31;37.42;;;18.08;;
31206;SDS011;17834;52.992;8.856;2022-09-09T00:48:54;36.67;;;14.73;;
31206;SDS011;17834;52.992;8.856;2022-09-09T00:56:53;29.08;;;14.27;;
31206;SDS011;17834;52.992;8.856;2022-09-09T00:59:30;36.72;;;16.45;;
31206;SDS011;17834;52.992;8.856;2022-09-09T01:02:01;32.67;;;15.43;;
31206;SDS011;17834;52.992;8.856;2022-09-09T01:04:29;25.88;;;12.93;;
31206;SDS011;17834;52.992;8.856;2022-09-09T01:07:04;28.77;;;13.77;;
31206;SDS011;17834;52.992;8.856;2022-09-09T01:12:24;26.70;;;12.60;;
31206;SDS011;17834;52.992;8.856;2022-09-09T01:14:54;27.80;;;12.95;;
31206;SDS011;17834;52.992;8.856;2022-09-09T01:17:32;26.98;;;13.30;;
31206;SDS011;17834;52.992;8.856;2022-09-09T01:20:10;27.15;;;12.93;;
31206;SDS011;17834;52.992;8.856;2022-09-09T01:22:52;26.50;;;13.65;;
31206;SDS011;17834;52.992;8.856;2022-09-09T01:27:51;28.48;;;14.48;;
31206;SDS011;17834;52.992;8.856;2022-09-09T01:30:18;26.95;;;13.02;;
31206;SDS011;17834;52.992;8.856;2022-09-09T01:32:54;29.10;;;12.25;;
31206;SDS011;17834;52.992;8.856;2022-09-09T01:37:55;26.15;;;13.63;;
31206;SDS011;17834;52.992;8.856;2022-09-09T01:40:21;23.63;;;12.18;;
31206;SDS011;17834;52.992;8.856;2022-09-09T01:42:47;28.70;;;13.45;;
31206;SDS011;17834;52.992;8.856;2022-09-09T01:45:14;26.02;;;12.13;;
31206;SDS011;17834;52.992;8.856;2022-09-09T01:47:40;23.80;;;11.30;;
31206;SDS011;17834;52.992;8.856;2022-09-09T01:50:07;25.55;;;11.57;;
31206;SDS011;17834;52.992;8.856;2022-09-09T01:52:34;26.60;;;11.20;;
31206;SDS011;17834;52.992;8.856;2022-09-09T01:55:01;23.63;;;11.57;;
31206;SDS011;17834;52.992;8.856;2022-09-09T01:57:30;24.75;;;11.55;;
31206;SDS011;17834;52.992;8.856;2022-09-09T02:00:01;29.20;;;11.57;;
31206;SDS011;17834;52.992;8.856;2022-09-09T02:02:32;28.15;;;12.65;;
31206;SDS011;17834;52.992;8.856;2022-09-09T02:07:30;20.35;;;10.18;;
31206;SDS011;17834;52.992;8.856;2022-09-09T02:10:01;20.58;;;9.30;;
31206;SDS011;17834;52.992;8.856;2022-09-09T02:12:27;18.08;;;10.02;;
31206;SDS011;17834;52.992;8.856;2022-09-09T02:14:56;22.98;;;11.13;;
31206;SDS011;17834;52.992;8.856;2022-09-09T02:17:26;19.58;;;10.32;;
31206;SDS011;17834;52.992;8.856;2022-09-09T02:19:54;19.45;;;10.35;;
31206;SDS011;17834;52.992;8.856;2022-09-09T02:22:22;23.25;;;11.65;;
31206;SDS011;17834;52.992;8.856;2022-09-09T02:24:50;21.40;;;11.82;;
31206;SDS011;17834;52.992;8.856;2022-09-09T02:27:19;22.20;;;11.25;;
31206;SDS011;17834;52.992;8.856;2022-09-09T02:29:46;20.95;;;11.45;;
31206;SDS011;17834;52.992;8.856;2022-09-09T02:32:14;22.98;;;11.18;;
31206;SDS011;17834;52.992;8.856;2022-09-09T02:34:45;19.70;;;11.57;;
31206;SDS011;17834;52.992;8.856;2022-09-09T02:37:12;20.30;;;10.85;;
31206;SDS011;17834;52.992;8.856;2022-09-09T02:39:40;24.73;;;11.57;;
31206;SDS011;17834;52.992;8.856;2022-09-09T02:42:07;24.63;;;11.98;;
31206;SDS011;17834;52.992;8.856;2022-09-09T02:44:33;22.33;;;10.93;;
31206;SDS011;17834;52.992;8.856;2022-09-09T02:51:59;20.75;;;10.38;;
31206;SDS011;17834;52.992;8.856;2022-09-09T02:54:27;22.95;;;11.73;;
31206;SDS011;17834;52.992;8.856;2022-09-09T02:56:57;20.77;;;11.38;;
31206;SDS011;17834;52.992;8.856;2022-09-09T02:59:27;21.67;;;10.02;;
31206;SDS011;17834;52.992;8.856;2022-09-09T03:01:54;19.35;;;10.18;;
31206;SDS011;17834;52.992;8.856;2022-09-09T03:04:20;19.30;;;10.70;;
31206;SDS011;17834;52.992;8.856;2022-09-09T03:06:46;20.63;;;10.13;;
31206;SDS011;17834;52.992;8.856;2022-09-09T03:09:12;26.30;;;12.48;;
31206;SDS011;17834;52.992;8.856;2022-09-09T03:11:38;19.90;;;10.43;;
31206;SDS011;17834;52.992;8.856;2022-09-09T03:14:04;19.33;;;9.68;;
31206;SDS011;17834;52.992;8.856;2022-09-09T03:16:31;20.98;;;10.07;;
31206;SDS011;17834;52.992;8.856;2022-09-09T03:18:59;23.52;;;9.52;;
31206;SDS011;17834;52.992;8.856;2022-09-09T03:21:25;18.02;;;9.70;;
31206;SDS011;17834;52.992;8.856;2022-09-09T03:23:51;18.77;;;9.95;;
31206;SDS011;17834;52.992;8.856;2022-09-09T03:26:17;17.02;;;9.57;;
31206;SDS011;17834;52.992;8.856;2022-09-09T03:28:43;17.48;;;8.90;;
31206;SDS011;17834;52.992;8.856;2022-09-09T03:31:10;16.70;;;9.25;;
31206;SDS011;17834;52.992;8.856;2022-09-09T03:33:36;20.60;;;9.35;;
31206;SDS011;17834;52.992;8.856;2022-09-09T03:36:03;16.50;;;8.38;;
31206;SDS011;17834;52.992;8.856;2022-09-09T03:38:29;14.65;;;8.10;;
31206;SDS011;17834;52.992;8.856;2022-09-09T03:40:55;21.20;;;8.68;;
31206;SDS011;17834;52.992;8.856;2022-09-09T03:43:26;19.85;;;8.35;;
31206;SDS011;17834;52.992;8.856;2022-09-09T03:45:52;12.82;;;7.60;;
31206;SDS011;17834;52.992;8.856;2022-09-09T03:48:21;19.30;;;8.35;;
31206;SDS011;17834;52.992;8.856;2022-09-09T03:50:49;18.17;;;8.30;;
31206;SDS011;17834;52.992;8.856;2022-09-09T03:53:15;14.88;;;6.93;;
31206;SDS011;17834;52.992;8.856;2022-09-09T03:55:49;12.38;;;6.75;;
31206;SDS011;17834;52.992;8.856;2022-09-09T03:58:17;12.85;;;6.15;;
31206;SDS011;17834;52.992;8.856;2022-09-09T04:00:43;16.90;;;7.05;;
31206;SDS011;17834;52.992;8.856;2022-09-09T04:03:10;10.57;;;6.05;;
31206;SDS011;17834;52.992;8.856;2022-09-09T04:05:37;10.55;;;5.68;;
31206;SDS011;17834;52.992;8.856;2022-09-09T04:08:06;14.40;;;5.75;;
31206;SDS011;17834;52.992;8.856;2022-09-09T04:10:33;9.05;;;5.72;;
31206;SDS011;17834;52.992;8.856;2022-09-09T04:13:01;15.10;;;6.18;;
31206;SDS011;17834;52.992;8.856;2022-09-09T04:15:27;12.43;;;5.95;;
31206;SDS011;17834;52.992;8.856;2022-09-09T04:17:53;12.77;;;5.30;;
31206;SDS011;17834;52.992;8.856;2022-09-09T04:20:19;11.32;;;5.10;;
31206;SDS011;17834;52.992;8.856;2022-09-09T04:22:45;12.43;;;5.80;;
31206;SDS011;17834;52.992;8.856;2022-09-09T04:25:11;14.30;;;5.50;;
31206;SDS011;17834;52.992;8.856;2022-09-09T04:27:37;10.55;;;5.20;;
31206;SDS011;17834;52.992;8.856;2022-09-09T04:30:03;9.73;;;4.75;;
31206;SDS011;17834;52.992;8.856;2022-09-09T04:32:29;11.00;;;5.20;;
31206;SDS011;17834;52.992;8.856;2022-09-09T04:34:55;12.30;;;5.60;;
31206;SDS011;17834;52.992;8.856;2022-09-09T04:37:22;8.27;;;4.72;;
31206;SDS011;17834;52.992;8.856;2022-09-09T04:39:49;10.48;;;4.93;;
31206;SDS011;17834;52.992;8.856;2022-09-09T04:42:15;11.25;;;5.75;;
31206;SDS011;17834;52.992;8.856;2022-09-09T04:44:44;12.93;;;4.82;;
31206;SDS011;17834;52.992;8.856;2022-09-09T04:47:10;8.18;;;4.68;;
31206;SDS011;17834;52.992;8.856;2022-09-09T04:49:36;15.20;;;5.32;;
31206;SDS011;17834;52.992;8.856;2022-09-09T04:52:03;15.73;;;4.70;;
31206;SDS011;17834;52.992;8.856;2022-09-09T04:54:29;9.27;;;5.40;;
31206;SDS011;17834;52.992;8.856;2022-09-09T04:56:55;13.25;;;5.45;;
31206;SDS011;17834;52.992;8.856;2022-09-09T04:59:22;11.75;;;5.57;;
31206;SDS011;17834;52.992;8.856;2022-09-09T05:01:48;8.07;;;4.75;;
31206;SDS011;17834;52.992;8.856;2022-09-09T05:04:15;8.85;;;4.95;;
31206;SDS011;17834;52.992;8.856;2022-09-09T05:06:41;8.63;;;4.43;;
31206;SDS011;17834;52.992;8.856;2022-09-09T05:09:07;13.27;;;4.78;;
31206;SDS011;17834;52.992;8.856;2022-09-09T05:11:33;11.52;;;5.32;;
31206;SDS011;17834;52.992;8.856;2022-09-09T05:14:03;8.63;;;4.40;;
31206;SDS011;17834;52.992;8.856;2022-09-09T05:16:29;13.80;;;4.90;;
31206;SDS011;17834;52.992;8.856;2022-09-09T05:18:56;8.60;;;4.95;;
31206;SDS011;17834;52.992;8.856;2022-09-09T05:21:22;10.00;;;4.60;;
31206;SDS011;17834;52.992;8.856;2022-09-09T05:23:50;10.25;;;4.18;;
31206;SDS011;17834;52.992;8.856;2022-09-09T05:26:17;11.27;;;5.15;;
31206;SDS011;17834;52.992;8.856;2022-09-09T05:28:43;9.63;;;4.65;;
31206;SDS011;17834;52.992;8.856;2022-09-09T05:31:09;12.80;;;5.25;;
31206;SDS011;17834;52.992;8.856;2022-09-09T05:33:37;9.48;;;5.03;;
31206;SDS011;17834;52.992;8.856;2022-09-09T05:36:06;10.60;;;4.97;;
31206;SDS011;17834;52.992;8.856;2022-09-09T05:38:33;13.63;;;5.68;;
31206;SDS011;17834;52.992;8.856;2022-09-09T05:40:59;9.43;;;4.47;;
31206;SDS011;17834;52.992;8.856;2022-09-09T05:43:26;12.15;;;5.32;;
31206;SDS011;17834;52.992;8.856;2022-09-09T05:45:59;9.45;;;4.72;;
31206;SDS011;17834;52.992;8.856;2022-09-09T05:48:30;8.55;;;5.10;;
31206;SDS011;17834;52.992;8.856;2022-09-09T05:50:56;15.82;;;5.38;;
31206;SDS011;17834;52.992;8.856;2022-09-09T05:53:23;10.40;;;4.88;;
31206;SDS011;17834;52.992;8.856;2022-09-09T05:55:49;11.75;;;5.10;;
31206;SDS011;17834;52.992;8.856;2022-09-09T05:58:15;11.02;;;5.70;;
31206;SDS011;17834;52.992;8.856;2022-09-09T06:00:41;10.65;;;5.18;;
31206;SDS011;17834;52.992;8.856;2022-09-09T06:03:10;12.50;;;5.90;;
31206;SDS011;17834;52.992;8.856;2022-09-09T06:05:36;13.77;;;5.70;;
31206;SDS011;17834;52.992;8.856;2022-09-09T06:08:02;13.45;;;6.47;;
31206;SDS011;17834;52.992;8.856;2022-09-09T06:10:28;14.23;;;5.93;;
31206;SDS011;17834;52.992;8.856;2022-09-09T06:12:54;11.30;;;5.70;;
31206;SDS011;17834;52.992;8.856;2022-09-09T06:15:22;10.80;;;5.63;;
31206;SDS011;17834;52.992;8.856;2022-09-09T06:17:53;13.00;;;5.30;;
31206;SDS011;17834;52.992;8.856;2022-09-09T06:20:20;19.15;;;6.88;;
31206;SDS011;17834;52.992;8.856;2022-09-09T06:22:46;10.95;;;6.30;;
31206;SDS011;17834;52.992;8.856;2022-09-09T06:25:13;12.75;;;6.43;;
31206;SDS011;17834;52.992;8.856;2022-09-09T06:27:39;15.73;;;6.22;;
31206;SDS011;17834;52.992;8.856;2022-09-09T06:30:07;12.57;;;5.57;;
31206;SDS011;17834;52.992;8.856;2022-09-09T06:32:33;11.93;;;6.13;;
31206;SDS011;17834;52.992;8.856;2022-09-09T06:35:01;14.50;;;6.05;;
31206;SDS011;17834;52.992;8.856;2022-09-09T06:37:29;11.65;;;5.00;;
31206;SDS011;17834;52.992;8.856;2022-09-09T06:39:56;12.63;;;6.82;;
31206;SDS011;17834;52.992;8.856;2022-09-09T06:42:22;9.50;;;5.55;;
31206;SDS011;17834;52.992;8.856;2022-09-09T06:44:48;10.45;;;5.13;;
31206;SDS011;17834;52.992;8.856;2022-09-09T06:47:14;10.95;;;5.30;;
31206;SDS011;17834;52.992;8.856;2022-09-09T06:49:40;11.25;;;4.75;;
31206;SDS011;17834;52.992;8.856;2022-09-09T06:52:07;16.13;;;5.70;;
31206;SDS011;17834;52.992;8.856;2022-09-09T06:54:34;9.57;;;4.90;;
31206;SDS011;17834;52.992;8.856;2022-09-09T06:57:02;10.65;;;6.22;;
31206;SDS011;17834;52.992;8.856;2022-09-09T06:59:28;13.48;;;5.60;;
31206;SDS011;17834;52.992;8.856;2022-09-09T07:01:55;9.50;;;4.82;;
31206;SDS011;17834;52.992;8.856;2022-09-09T07:04:21;8.63;;;5.55;;
31206;SDS011;17834;52.992;8.856;2022-09-09T07:06:47;8.80;;;4.63;;
31206;SDS011;17834;52.992;8.856;2022-09-09T07:09:14;8.75;;;4.63;;
31206;SDS011;17834;52.992;8.856;2022-09-09T07:11:42;12.88;;;5.13;;
31206;SDS011;17834;52.992;8.856;2022-09-09T07:14:09;11.82;;;4.65;;
31206;SDS011;17834;52.992;8.856;2022-09-09T07:16:38;10.95;;;4.90;;
31206;SDS011;17834;52.992;8.856;2022-09-09T07:19:04;10.02;;;4.80;;
31206;SDS011;17834;52.992;8.856;2022-09-09T07:21:30;12.88;;;5.03;;
31206;SDS011;17834;52.992;8.856;2022-09-09T07:23:57;10.80;;;4.45;;
31206;SDS011;17834;52.992;8.856;2022-09-09T07:26:25;9.15;;;4.35;;
31206;SDS011;17834;52.992;8.856;2022-09-09T07:28:52;8.13;;;4.78;;
31206;SDS011;17834;52.992;8.856;2022-09-09T07:31:23;9.85;;;4.57;;
31206;SDS011;17834;52.992;8.856;2022-09-09T07:33:50;9.23;;;4.50;;
31206;SDS011;17834;52.992;8.856;2022-09-09T07:36:20;8.70;;;4.18;;
31206;SDS011;17834;52.992;8.856;2022-09-09T07:38:50;10.35;;;4.25;;
31206;SDS011;17834;52.992;8.856;2022-09-09T07:41:23;7.97;;;4.15;;
31206;SDS011;17834;52.992;8.856;2022-09-09T07:43:50;6.22;;;3.65;;
31206;SDS011;17834;52.992;8.856;2022-09-09T07:46:17;10.13;;;4.25;;
31206;SDS011;17834;52.992;8.856;2022-09-09T07:48:48;10.00;;;3.97;;
31206;SDS011;17834;52.992;8.856;2022-09-09T07:51:19;8.68;;;3.85;;
31206;SDS011;17834;52.992;8.856;2022-09-09T07:53:47;7.07;;;3.88;;
31206;SDS011;17834;52.992;8.856;2022-09-09T07:56:14;7.25;;;3.10;;
31206;SDS011;17834;52.992;8.856;2022-09-09T07:58:41;7.78;;;2.88;;
31206;SDS011;17834;52.992;8.856;2022-09-09T08:01:09;8.73;;;3.03;;
31206;SDS011;17834;52.992;8.856;2022-09-09T08:03:35;5.88;;;2.85;;
31206;SDS011;17834;52.992;8.856;2022-09-09T08:06:06;6.00;;;2.92;;
31206;SDS011;17834;52.992;8.856;2022-09-09T08:08:33;9.85;;;2.85;;
31206;SDS011;17834;52.992;8.856;2022-09-09T08:11:06;4.40;;;2.55;;
31206;SDS011;17834;52.992;8.856;2022-09-09T08:13:33;5.95;;;2.20;;
31206;SDS011;17834;52.992;8.856;2022-09-09T08:16:09;4.68;;;2.50;;
31206;SDS011;17834;52.992;8.856;2022-09-09T08:18:36;8.70;;;2.75;;
31206;SDS011;17834;52.992;8.856;2022-09-09T08:21:06;6.50;;;2.30;;
31206;SDS011;17834;52.992;8.856;2022-09-09T08:23:33;3.53;;;1.75;;
31206;SDS011;17834;52.992;8.856;2022-09-09T08:26:03;9.13;;;2.15;;
31206;SDS011;17834;52.992;8.856;2022-09-09T08:28:29;6.07;;;2.42;;
31206;SDS011;17834;52.992;8.856;2022-09-09T08:30:56;5.00;;;2.30;;
31206;SDS011;17834;52.992;8.856;2022-09-09T08:33:22;7.18;;;2.72;;
31206;SDS011;17834;52.992;8.856;2022-09-09T08:35:51;4.85;;;2.28;;
31206;SDS011;17834;52.992;8.856;2022-09-09T08:38:17;5.45;;;1.95;;
31206;SDS011;17834;52.992;8.856;2022-09-09T08:40:43;7.43;;;2.75;;
31206;SDS011;17834;52.992;8.856;2022-09-09T08:43:14;4.82;;;2.10;;
31206;SDS011;17834;52.992;8.856;2022-09-09T08:45:49;3.83;;;1.70;;
31206;SDS011;17834;52.992;8.856;2022-09-09T08:50:48;4.07;;;1.48;;
31206;SDS011;17834;52.992;8.856;2022-09-09T08:53:25;5.15;;;1.50;;
31206;SDS011;17834;52.992;8.856;2022-09-09T08:55:58;6.15;;;1.60;;
31206;SDS011;17834;52.992;8.856;2022-09-09T08:58:26;3.13;;;1.40;;
31206;SDS011;17834;52.992;8.856;2022-09-09T09:03:30;4.72;;;1.77;;
31206;SDS011;17834;52.992;8.856;2022-09-09T09:08:47;4.10;;;2.03;;
31206;SDS011;17834;52.992;8.856;2022-09-09T09:11:17;2.22;;;1.48;;
31206;SDS011;17834;52.992;8.856;2022-09-09T09:13:50;3.55;;;1.90;;
31206;SDS011;17834;52.992;8.856;2022-09-09T09:16:34;3.45;;;1.60;;
31206;SDS011;17834;52.992;8.856;2022-09-09T09:19:04;4.22;;;1.80;;
31206;SDS011;17834;52.992;8.856;2022-09-09T09:21:39;3.97;;;1.95;;
31206;SDS011;17834;52.992;8.856;2022-09-09T09:24:32;2.60;;;2.00;;
31206;SDS011;17834;52.992;8.856;2022-09-09T09:26:53;5.45;;;1.80;;
31206;SDS011;17834;52.992;8.856;2022-09-09T09:29:19;4.82;;;2.33;;
31206;SDS011;17834;52.992;8.856;2022-09-09T09:31:48;3.78;;;2.10;;
31206;SDS011;17834;52.992;8.856;2022-09-09T09:34:16;6.15;;;1.70;;
31206;SDS011;17834;52.992;8.856;2022-09-09T09:36:46;6.30;;;1.88;;
31206;SDS011;17834;52.992;8.856;2022-09-09T09:39:24;5.75;;;1.83;;
31206;SDS011;17834;52.992;8.856;2022-09-09T09:41:51;5.40;;;1.80;;
31206;SDS011;17834;52.992;8.856;2022-09-09T09:44:28;3.58;;;1.55;;
31206;SDS011;17834;52.992;8.856;2022-09-09T09:47:05;5.30;;;1.95;;
31206;SDS011;17834;52.992;8.856;2022-09-09T09:49:31;5.13;;;1.85;;
31206;SDS011;17834;52.992;8.856;2022-09-09T09:52:01;4.88;;;2.13;;
31206;SDS011;17834;52.992;8.856;2022-09-09T09:54:28;5.85;;;2.50;;
31206;SDS011;17834;52.992;8.856;2022-09-09T09:56:54;6.32;;;2.53;;
31206;SDS011;17834;52.992;8.856;2022-09-09T10:01:46;5.68;;;2.80;;
31206;SDS011;17834;52.992;8.856;2022-09-09T10:04:16;5.57;;;2.70;;
31206;SDS011;17834;52.992;8.856;2022-09-09T10:06:44;7.13;;;2.63;;
31206;SDS011;17834;52.992;8.856;2022-09-09T10:09:23;4.63;;;2.63;;
31206;SDS011;17834;52.992;8.856;2022-09-09T10:14:39;5.85;;;2.90;;
31206;SDS011;17834;52.992;8.856;2022-09-09T10:19:38;4.75;;;3.10;;
31206;SDS011;17834;52.992;8.856;2022-09-09T10:30:06;5.22;;;2.58;;
31206;SDS011;17834;52.992;8.856;2022-09-09T10:32:36;5.32;;;2.97;;
31206;SDS011;17834;52.992;8.856;2022-09-09T10:35:09;6.30;;;2.85;;
31206;SDS011;17834;52.992;8.856;2022-09-09T10:42:39;5.90;;;2.85;;
31206;SDS011;17834;52.992;8.856;2022-09-09T10:45:17;6.93;;;2.47;;
31206;SDS011;17834;52.992;8.856;2022-09-09T10:47:47;3.97;;;2.20;;
31206;SDS011;17834;52.992;8.856;2022-09-09T10:55:35;7.10;;;2.22;;
31206;SDS011;17834;52.992;8.856;2022-09-09T10:58:03;5.63;;;2.03;;
31206;SDS011;17834;52.992;8.856;2022-09-09T11:03:02;6.07;;;1.80;;
31206;SDS011;17834;52.992;8.856;2022-09-09T11:05:33;3.70;;;1.77;;
31206;SDS011;17834;52.992;8.856;2022-09-09T11:08:03;3.63;;;1.98;;
31206;SDS011;17834;52.992;8.856;2022-09-09T11:10:36;4.85;;;2.22;;
31206;SDS011;17834;52.992;8.856;2022-09-09T11:13:09;4.10;;;2.05;;
31206;SDS011;17834;52.992;8.856;2022-09-09T11:18:03;6.10;;;2.22;;
31206;SDS011;17834;52.992;8.856;2022-09-09T11:20:30;4.63;;;2.15;;
31206;SDS011;17834;52.992;8.856;2022-09-09T11:23:02;5.55;;;2.53;;
31206;SDS011;17834;52.992;8.856;2022-09-09T11:25:31;3.38;;;2.08;;
31206;SDS011;17834;52.992;8.856;2022-09-09T11:28:09;3.22;;;2.33;;
31206;SDS011;17834;52.992;8.856;2022-09-09T11:35:38;4.90;;;2.33;;
31206;SDS011;17834;52.992;8.856;2022-09-09T11:38:25;5.47;;;2.10;;
31206;SDS011;17834;52.992;8.856;2022-09-09T11:43:20;5.85;;;2.63;;
31206;SDS011;17834;52.992;8.856;2022-09-09T11:45:52;3.75;;;2.70;;
31206;SDS011;17834;52.992;8.856;2022-09-09T11:48:42;5.65;;;2.78;;
31206;SDS011;17834;52.992;8.856;2022-09-09T11:51:25;4.35;;;3.10;;
31206;SDS011;17834;52.992;8.856;2022-09-09T11:53:53;5.28;;;2.83;;
31206;SDS011;17834;52.992;8.856;2022-09-09T11:56:29;7.75;;;3.85;;
31206;SDS011;17834;52.992;8.856;2022-09-09T11:58:57;5.70;;;3.63;;
31206;SDS011;17834;52.992;8.856;2022-09-09T12:01:28;6.57;;;2.90;;
31206;SDS011;17834;52.992;8.856;2022-09-09T12:04:05;8.07;;;3.20;;
31206;SDS011;17834;52.992;8.856;2022-09-09T12:06:33;6.45;;;3.78;;
31206;SDS011;17834;52.992;8.856;2022-09-09T12:09:08;5.90;;;3.50;;
31206;SDS011;17834;52.992;8.856;2022-09-09T12:11:36;6.57;;;4.40;;
31206;SDS011;17834;52.992;8.856;2022-09-09T12:14:02;7.30;;;3.67;;
31206;SDS011;17834;52.992;8.856;2022-09-09T12:16:37;7.53;;;3.50;;
31206;SDS011;17834;52.992;8.856;2022-09-09T12:19:15;8.10;;;4.28;;
31206;SDS011;17834;52.992;8.856;2022-09-09T12:27:28;8.63;;;4.13;;
31206;SDS011;17834;52.992;8.856;2022-09-09T12:30:07;5.07;;;4.10;;
31206;SDS011;17834;52.992;8.856;2022-09-09T12:32:34;8.23;;;4.53;;
31206;SDS011;17834;52.992;8.856;2022-09-09T12:37:36;6.72;;;4.18;;
31206;SDS011;17834;52.992;8.856;2022-09-09T12:40:04;8.70;;;4.65;;
31206;SDS011;17834;52.992;8.856;2022-09-09T12:42:31;6.68;;;3.97;;
31206;SDS011;17834;52.992;8.856;2022-09-09T12:45:00;5.63;;;3.42;;
31206;SDS011;17834;52.992;8.856;2022-09-09T12:47:38;7.22;;;3.80;;
31206;SDS011;17834;52.992;8.856;2022-09-09T12:50:12;5.47;;;3.10;;
31206;SDS011;17834;52.992;8.856;2022-09-09T12:52:41;8.95;;;3.38;;
31206;SDS011;17834;52.992;8.856;2022-09-09T12:55:07;3.42;;;2.72;;
31206;SDS011;17834;52.992;8.856;2022-09-09T12:57:41;4.15;;;2.60;;
31206;SDS011;17834;52.992;8.856;2022-09-09T13:00:12;5.45;;;2.85;;
31206;SDS011;17834;52.992;8.856;2022-09-09T13:02:47;6.30;;;3.20;;
31206;SDS011;17834;52.992;8.856;2022-09-09T13:05:16;8.45;;;3.78;;
31206;SDS011;17834;52.992;8.856;2022-09-09T13:07:42;8.95;;;3.35;;
31206;SDS011;17834;52.992;8.856;2022-09-09T13:10:12;7.65;;;2.75;;
31206;SDS011;17834;52.992;8.856;2022-09-09T13:12:39;4.55;;;2.00;;
31206;SDS011;17834;52.992;8.856;2022-09-09T13:15:10;4.00;;;2.22;;
31206;SDS011;17834;52.992;8.856;2022-09-09T13:17:39;4.95;;;2.60;;
31206;SDS011;17834;52.992;8.856;2022-09-09T13:20:06;4.38;;;2.03;;
31206;SDS011;17834;52.992;8.856;2022-09-09T13:22:36;6.30;;;2.00;;
31206;SDS011;17834;52.992;8.856;2022-09-09T13:25:13;5.05;;;1.95;;
31206;SDS011;17834;52.992;8.856;2022-09-09T13:27:51;4.07;;;1.90;;
31206;SDS011;17834;52.992;8.856;2022-09-09T13:30:33;4.03;;;1.98;;
31206;SDS011;17834;52.992;8.856;2022-09-09T13:35:35;5.07;;;1.60;;
31206;SDS011;17834;52.992;8.856;2022-09-09T13:38:12;3.72;;;1.50;;
31206;SDS011;17834;52.992;8.856;2022-09-09T13:40:39;4.47;;;1.45;;
31206;SDS011;17834;52.992;8.856;2022-09-09T13:43:05;6.47;;;1.80;;
31206;SDS011;17834;52.992;8.856;2022-09-09T13:45:36;3.15;;;1.23;;
31206;SDS011;17834;52.992;8.856;2022-09-09T13:48:08;4.35;;;1.35;;
31206;SDS011;17834;52.992;8.856;2022-09-09T13:50:34;6.72;;;1.88;;
31206;SDS011;17834;52.992;8.856;2022-09-09T13:53:00;4.47;;;1.73;;
31206;SDS011;17834;52.992;8.856;2022-09-09T13:55:27;5.53;;;1.50;;
31206;SDS011;17834;52.992;8.856;2022-09-09T13:57:54;5.38;;;1.60;;
31206;SDS011;17834;52.992;8.856;2022-09-09T14:00:21;4.57;;;1.63;;
31206;SDS011;17834;52.992;8.856;2022-09-09T14:02:47;5.65;;;1.80;;
31206;SDS011;17834;52.992;8.856;2022-09-09T14:05:13;5.45;;;1.88;;
31206;SDS011;17834;52.992;8.856;2022-09-09T14:07:41;3.88;;;2.17;;
31206;SDS011;17834;52.992;8.856;2022-09-09T14:10:07;5.03;;;2.50;;
31206;SDS011;17834;52.992;8.856;2022-09-09T14:12:33;4.13;;;2.30;;
31206;SDS011;17834;52.992;8.856;2022-09-09T14:14:59;5.75;;;2.33;;
31206;SDS011;17834;52.992;8.856;2022-09-09T14:17:25;5.13;;;2.20;;
31206;SDS011;17834;52.992;8.856;2022-09-09T14:19:54;6.60;;;2.38;;
31206;SDS011;17834;52.992;8.856;2022-09-09T14:22:21;5.18;;;2.45;;
31206;SDS011;17834;52.992;8.856;2022-09-09T14:24:47;2.78;;;2.30;;
31206;SDS011;17834;52.992;8.856;2022-09-09T14:27:13;5.45;;;3.05;;
31206;SDS011;17834;52.992;8.856;2022-09-09T14:29:39;7.38;;;2.78;;
31206;SDS011;17834;52.992;8.856;2022-09-09T14:32:05;6.22;;;2.90;;
31206;SDS011;17834;52.992;8.856;2022-09-09T14:34:31;5.95;;;2.90;;
31206;SDS011;17834;52.992;8.856;2022-09-09T14:36:57;8.35;;;2.83;;
31206;SDS011;17834;52.992;8.856;2022-09-09T14:39:23;5.88;;;3.80;;
31206;SDS011;17834;52.992;8.856;2022-09-09T14:41:49;5.18;;;3.03;;
31206;SDS011;17834;52.992;8.856;2022-09-09T14:44:15;8.50;;;3.20;;
31206;SDS011;17834;52.992;8.856;2022-09-09T14:46:41;5.90;;;3.75;;
31206;SDS011;17834;52.992;8.856;2022-09-09T14:49:10;8.02;;;3.70;;
31206;SDS011;17834;52.992;8.856;2022-09-09T14:51:37;5.22;;;3.38;;
31206;SDS011;17834;52.992;8.856;2022-09-09T14:54:03;6.78;;;3.55;;
31206;SDS011;17834;52.992;8.856;2022-09-09T14:56:31;5.90;;;4.57;;
31206;SDS011;17834;52.992;8.856;2022-09-09T14:58:59;7.50;;;3.78;;
31206;SDS011;17834;52.992;8.856;2022-09-09T15:01:26;9.68;;;4.20;;
31206;SDS011;17834;52.992;8.856;2022-09-09T15:03:59;6.47;;;4.03;;
31206;SDS011;17834;52.992;8.856;2022-09-09T15:06:26;11.13;;;3.97;;
31206;SDS011;17834;52.992;8.856;2022-09-09T15:08:53;6.22;;;4.00;;
31206;SDS011;17834;52.992;8.856;2022-09-09T15:11:20;7.53;;;4.20;;
31206;SDS011;17834;52.992;8.856;2022-09-09T15:13:47;7.13;;;4.65;;
31206;SDS011;17834;52.992;8.856;2022-09-09T15:16:14;10.10;;;4.78;;
31206;SDS011;17834;52.992;8.856;2022-09-09T15:18:41;9.63;;;4.57;;
31206;SDS011;17834;52.992;8.856;2022-09-09T15:21:14;7.60;;;3.90;;
31206;SDS011;17834;52.992;8.856;2022-09-09T15:23:40;7.00;;;3.53;;
31206;SDS011;17834;52.992;8.856;2022-09-09T15:26:06;6.88;;;3.70;;
31206;SDS011;17834;52.992;8.856;2022-09-09T15:28:33;6.40;;;2.83;;
31206;SDS011;17834;52.992;8.856;2022-09-09T15:31:06;9.05;;;3.28;;
31206;SDS011;17834;52.992;8.856;2022-09-09T15:33:33;6.32;;;2.97;;
31206;SDS011;17834;52.992;8.856;2022-09-09T15:36:01;7.63;;;2.95;;
31206;SDS011;17834;52.992;8.856;2022-09-09T15:38:37;5.78;;;2.65;;
31206;SDS011;17834;52.992;8.856;2022-09-09T15:41:03;5.75;;;2.00;;
31206;SDS011;17834;52.992;8.856;2022-09-09T15:43:29;4.72;;;1.90;;
31206;SDS011;17834;52.992;8.856;2022-09-09T15:45:57;4.15;;;1.80;;
31206;SDS011;17834;52.992;8.856;2022-09-09T15:48:29;3.33;;;1.70;;
31206;SDS011;17834;52.992;8.856;2022-09-09T15:51:01;4.78;;;2.70;;
31206;SDS011;17834;52.992;8.856;2022-09-09T15:53:28;4.95;;;1.90;;
31206;SDS011;17834;52.992;8.856;2022-09-09T15:55:54;2.55;;;2.00;;
31206;SDS011;17834;52.992;8.856;2022-09-09T15:58:20;6.28;;;2.60;;
31206;SDS011;17834;52.992;8.856;2022-09-09T16:00:46;6.05;;;2.30;;
31206;SDS011;17834;52.992;8.856;2022-09-09T16:03:12;5.13;;;1.98;;
31206;SDS011;17834;52.992;8.856;2022-09-09T16:05:38;7.43;;;2.20;;
31206;SDS011;17834;52.992;8.856;2022-09-09T16:08:05;6.63;;;2.60;;
31206;SDS011;17834;52.992;8.856;2022-09-09T16:10:31;5.60;;;2.55;;
31206;SDS011;17834;52.992;8.856;2022-09-09T16:12:57;5.60;;;2.55;;
31206;SDS011;17834;52.992;8.856;2022-09-09T16:15:23;5.32;;;2.40;;
31206;SDS011;17834;52.992;8.856;2022-09-09T16:17:52;5.43;;;2.78;;
31206;SDS011;17834;52.992;8.856;2022-09-09T16:20:18;8.02;;;2.90;;
31206;SDS011;17834;52.992;8.856;2022-09-09T16:22:45;5.40;;;2.35;;